createdAt,value
2018-07-28T00:07:58.200Z,11.93
2018-07-28T00:23:02.166Z,11.70
2018-07-28T00:38:06.111Z,12.47
2018-07-28T00:53:10.382Z,13.10
2018-07-28T01:08:14.267Z,12.90
2018-07-28T01:23:18.069Z,12.70
2018-07-28T01:38:21.931Z,13.27
2018-07-28T01:53:25.740Z,15.03
2018-07-28T02:08:29.567Z,15.50
2018-07-28T02:23:33.348Z,13.33
2018-07-28T02:38:37.197Z,13.97
2018-07-28T02:53:44.412Z,15.10
2018-07-28T03:08:48.220Z,16.03
2018-07-28T03:23:52.016Z,16.10
2018-07-28T03:38:56.402Z,15.00
2018-07-28T03:54:00.234Z,15.27
2018-07-28T04:09:04.597Z,14.53
2018-07-28T04:24:08.476Z,11.03
2018-07-28T04:39:13.685Z,10.27
2018-07-28T04:54:17.477Z,11.03
2018-07-28T05:09:21.294Z,10.03
2018-07-28T05:24:25.149Z,9.13
2018-07-28T05:39:29.055Z,9.13
2018-07-28T05:54:32.855Z,9.37
2018-07-28T06:09:36.708Z,8.80
2018-07-28T06:24:40.529Z,9.77
2018-07-28T06:39:44.527Z,8.93
2018-07-28T06:54:48.361Z,9.43
2018-07-28T07:09:52.276Z,8.33
2018-07-28T07:24:56.195Z,6.43
2018-07-28T07:40:00.037Z,7.22
2018-07-28T07:55:04.131Z,6.37
2018-07-28T08:10:08.021Z,6.47
2018-07-28T08:25:12.019Z,6.28
2018-07-28T08:40:15.988Z,6.45
2018-07-28T08:55:20.000Z,5.58
2018-07-28T09:10:23.846Z,6.47
2018-07-28T09:25:28.076Z,6.80
2018-07-28T09:40:31.949Z,6.35
2018-07-28T09:55:36.758Z,6.47
2018-07-28T10:10:40.928Z,7.20
2018-07-28T10:25:44.913Z,7.42
2018-07-28T10:40:49.174Z,6.87
2018-07-28T10:55:53.077Z,7.03
2018-07-28T11:10:57.022Z,7.05
2018-07-28T11:26:00.975Z,7.67
2018-07-28T11:41:15.789Z,6.83
2018-07-28T11:56:19.630Z,7.75
2018-07-28T12:11:23.517Z,6.50
2018-07-28T12:26:27.544Z,6.80
2018-07-28T12:41:31.410Z,6.90
2018-07-28T12:56:35.366Z,8.00
2018-07-28T13:11:39.385Z,7.30
2018-07-28T13:26:43.521Z,8.57
2018-07-28T13:41:47.378Z,8.37
2018-07-28T13:56:51.351Z,9.00
2018-07-28T14:11:55.229Z,9.23
2018-07-28T14:26:59.249Z,9.00
2018-07-28T14:42:03.109Z,8.27
2018-07-28T14:57:06.970Z,7.93
2018-07-28T15:12:11.050Z,9.17
2018-07-28T15:27:14.924Z,8.60
2018-07-28T15:42:18.860Z,8.10
2018-07-28T15:57:22.738Z,8.30
2018-07-28T16:12:26.591Z,8.27
2018-07-28T16:27:30.442Z,9.20
2018-07-28T16:42:34.315Z,8.50
2018-07-28T16:57:38.247Z,8.30
2018-07-28T17:12:42.196Z,9.27
2018-07-28T17:27:46.188Z,10.57
2018-07-28T17:42:50.116Z,10.27
2018-07-28T17:57:54.127Z,9.70
2018-07-28T18:12:58.140Z,8.93
2018-07-28T18:28:02.268Z,14.37
2018-07-28T18:43:06.241Z,11.37
2018-07-28T18:58:10.252Z,13.17
2018-07-28T19:13:19.678Z,18.30
2018-07-28T19:28:28.605Z,12.60
2018-07-28T19:43:32.844Z,16.10
2018-07-28T19:58:36.847Z,19.63
2018-07-28T20:13:41.148Z,22.17
2018-07-28T20:28:45.128Z,22.03
2018-07-28T20:43:49.045Z,21.53
2018-07-28T20:58:53.165Z,23.40
2018-07-28T21:13:57.064Z,22.53
2018-07-28T21:29:00.969Z,20.90
2018-07-28T21:44:05.061Z,19.17
2018-07-28T21:59:09.002Z,16.57
2018-07-28T22:14:13.061Z,14.73
2018-07-28T22:29:17.251Z,14.70
2018-07-28T22:44:21.091Z,13.83
2018-07-28T22:59:25.092Z,14.20
2018-07-28T23:14:29.056Z,13.83
2018-07-28T23:29:33.019Z,14.77
2018-07-28T23:44:36.879Z,13.60
2018-07-28T23:59:40.801Z,14.53
